createdAt,value
2022-10-22T00:00:20.624Z,101115.03
2022-10-22T00:02:53.762Z,101112.81
2022-10-22T00:05:26.804Z,101111.45
2022-10-22T00:07:59.754Z,101104.19
2022-10-22T00:10:33.304Z,101108.83
2022-10-22T00:13:07.159Z,101099.34
2022-10-22T00:15:42.009Z,101099.84
2022-10-22T00:18:15.046Z,101092.80
2022-10-22T00:20:47.838Z,101089.23
2022-10-22T00:23:20.789Z,101089.95
2022-10-22T00:25:56.175Z,101088.66
2022-10-22T00:28:29.364Z,101085.93
2022-10-22T00:31:03.780Z,101079.70
2022-10-22T00:33:37.698Z,101076.98
2022-10-22T00:36:11.229Z,101082.62
2022-10-22T00:38:45.075Z,101085.56
2022-10-22T00:41:18.345Z,101090.95
2022-10-22T00:44:04.799Z,101091.20
2022-10-22T00:46:38.255Z,101089.91
2022-10-22T00:49:11.472Z,101091.05
2022-10-22T00:51:44.304Z,101093.78
2022-10-22T00:54:17.259Z,101087.17
2022-10-22T00:56:50.222Z,101089.62
2022-10-22T00:59:23.636Z,101093.35
2022-10-22T01:01:56.910Z,101093.60
2022-10-22T01:04:29.747Z,101091.11
2022-10-22T01:07:03.556Z,101091.19
2022-10-22T01:09:46.354Z,101094.63
2022-10-22T01:12:43.627Z,101089.80
2022-10-22T01:15:26.308Z,101094.68
2022-10-22T01:18:20.973Z,101089.97
2022-10-22T01:21:23.659Z,101099.80
2022-10-22T01:24:27.361Z,101096.38
2022-10-22T01:27:13.760Z,101104.59
2022-10-22T01:29:56.626Z,101105.73
2022-10-22T01:32:30.743Z,101108.96
2022-10-22T01:35:09.157Z,101104.03
2022-10-22T01:37:52.026Z,101105.54
2022-10-22T01:40:26.822Z,101108.27
2022-10-22T01:43:03.976Z,101107.13
2022-10-22T01:45:51.844Z,101110.50
2022-10-22T01:49:03.424Z,101104.19
2022-10-22T01:51:59.060Z,101104.50
2022-10-22T01:54:40.127Z,101100.95
2022-10-22T01:57:44.408Z,101094.05
2022-10-22T02:00:19.074Z,101101.44
2022-10-22T02:03:05.370Z,101099.84
2022-10-22T02:05:53.132Z,101106.81
2022-10-22T02:08:32.737Z,101104.87
2022-10-22T02:11:06.708Z,101105.62
2022-10-22T02:13:42.333Z,101111.17
2022-10-22T02:16:16.979Z,101108.20
2022-10-22T02:18:50.630Z,101109.09
2022-10-22T02:21:23.562Z,101107.75
2022-10-22T02:23:56.551Z,101111.48
2022-10-22T02:26:48.152Z,101112.83
2022-10-22T02:29:28.489Z,101112.41
2022-10-22T02:32:03.207Z,101122.64
2022-10-22T02:34:36.380Z,101120.59
2022-10-22T02:37:10.589Z,101117.86
2022-10-22T02:39:44.344Z,101119.92
2022-10-22T02:42:18.525Z,101114.38
2022-10-22T02:44:52.423Z,101119.00
2022-10-22T02:47:25.564Z,101122.36
2022-10-22T02:49:58.373Z,101120.02
2022-10-22T02:52:31.131Z,101117.59
2022-10-22T02:55:04.558Z,101121.52
2022-10-22T02:57:37.688Z,101119.60
2022-10-22T03:00:12.404Z,101126.30
2022-10-22T03:02:45.393Z,101129.33
2022-10-22T03:05:18.448Z,101119.47
2022-10-22T03:07:51.463Z,101127.45
2022-10-22T03:10:24.407Z,101125.47
2022-10-22T03:12:57.874Z,101124.03
2022-10-22T03:15:31.439Z,101117.41
2022-10-22T03:18:04.402Z,101115.43
2022-10-22T03:20:37.436Z,101111.05
2022-10-22T03:23:10.641Z,101117.55
2022-10-22T03:25:44.809Z,101129.77
2022-10-22T03:28:19.886Z,101129.77
2022-10-22T03:30:53.173Z,101125.83
2022-10-22T03:33:26.990Z,101122.63
2022-10-22T03:35:59.895Z,101124.00
2022-10-22T03:38:33.931Z,101117.08
2022-10-22T03:41:06.891Z,101122.32
2022-10-22T03:43:41.387Z,101131.79
2022-10-22T03:46:14.711Z,101132.02
2022-10-22T03:48:47.922Z,101135.73
2022-10-22T03:51:20.878Z,101128.15
2022-10-22T03:53:53.962Z,101124.05
2022-10-22T03:56:27.920Z,101119.20
2022-10-22T03:59:02.193Z,101126.70
2022-10-22T04:01:35.905Z,101122.78
2022-10-22T04:04:09.545Z,101126.89
2022-10-22T04:06:42.894Z,101117.19
2022-10-22T04:09:16.413Z,101120.59
2022-10-22T04:11:49.133Z,101124.25
2022-10-22T04:14:22.279Z,101122.97
2022-10-22T04:16:56.029Z,101134.34
2022-10-22T04:19:29.576Z,101130.86
2022-10-22T04:22:02.785Z,101133.20
2022-10-22T04:24:36.657Z,101140.36
2022-10-22T04:27:09.898Z,101149.52
2022-10-22T04:29:42.724Z,101142.71
2022-10-22T04:32:15.456Z,101149.67
2022-10-22T04:34:48.603Z,101155.38
2022-10-22T04:37:23.019Z,101155.77
2022-10-22T04:39:58.156Z,101160.16
2022-10-22T04:42:31.755Z,101154.48
2022-10-22T04:45:04.949Z,101156.91
2022-10-22T04:47:38.055Z,101159.10
2022-10-22T04:50:11.466Z,101163.98
2022-10-22T04:52:44.427Z,101157.84
2022-10-22T04:55:17.755Z,101160.80
2022-10-22T04:57:50.777Z,101164.50
2022-10-22T05:00:23.716Z,101172.12
2022-10-22T05:02:57.061Z,101167.56
2022-10-22T05:05:30.299Z,101162.22
2022-10-22T05:08:04.183Z,101175.00
2022-10-22T05:10:37.387Z,101171.34
2022-10-22T05:13:10.388Z,101173.39
2022-10-22T05:15:43.274Z,101171.55
2022-10-22T05:18:18.996Z,101171.67
2022-10-22T05:20:50.675Z,101178.52
2022-10-22T05:23:23.797Z,101181.86
2022-10-22T05:25:56.558Z,101190.27
2022-10-22T05:28:29.657Z,101186.39
2022-10-22T05:31:02.934Z,101179.95
2022-10-22T05:33:37.330Z,101180.88
2022-10-22T05:36:17.529Z,101183.33
2022-10-22T05:38:52.470Z,101189.81
2022-10-22T05:41:28.639Z,101188.38
2022-10-22T05:44:02.188Z,101193.63
2022-10-22T05:46:37.914Z,101196.32
2022-10-22T05:49:15.527Z,101191.84
2022-10-22T05:51:49.352Z,101200.47
2022-10-22T05:54:23.139Z,101187.83
2022-10-22T05:56:56.409Z,101191.27
2022-10-22T05:59:29.779Z,101194.78
2022-10-22T06:02:02.576Z,101191.05
2022-10-22T06:04:35.747Z,101185.41
2022-10-22T06:07:10.688Z,101184.68
2022-10-22T06:09:44.111Z,101181.88
2022-10-22T06:12:18.038Z,101181.63
2022-10-22T06:14:51.068Z,101189.20
2022-10-22T06:17:25.577Z,101183.80
2022-10-22T06:19:58.664Z,101181.48
2022-10-22T06:22:32.290Z,101176.17
2022-10-22T06:25:08.451Z,101171.66
2022-10-22T06:27:41.519Z,101173.41
2022-10-22T06:30:15.121Z,101174.20
2022-10-22T06:32:48.320Z,101175.41
2022-10-22T06:35:21.658Z,101166.05
2022-10-22T06:37:54.551Z,101167.38
2022-10-22T06:40:27.539Z,101165.41
2022-10-22T06:43:02.575Z,101166.86
2022-10-22T06:45:37.033Z,101163.98
2022-10-22T06:48:09.935Z,101171.53
2022-10-22T06:50:44.303Z,101167.89
2022-10-22T06:53:17.366Z,101165.27
2022-10-22T06:55:50.975Z,101166.97
2022-10-22T06:58:23.851Z,101165.23
2022-10-22T07:01:10.065Z,101166.91
2022-10-22T07:03:43.706Z,101173.00
2022-10-22T07:06:16.483Z,101165.40
2022-10-22T07:08:50.141Z,101167.70
2022-10-22T07:11:33.546Z,101171.70
2022-10-22T07:14:06.205Z,101167.27
2022-10-22T07:16:41.659Z,101166.84
2022-10-22T07:19:14.956Z,101173.84
2022-10-22T07:21:48.119Z,101174.73
2022-10-22T07:24:21.204Z,101172.87
2022-10-22T07:26:54.174Z,101177.68
2022-10-22T07:29:27.190Z,101173.36
2022-10-22T07:32:01.500Z,101170.44
2022-10-22T07:34:34.465Z,101167.38
2022-10-22T07:37:09.230Z,101171.12
2022-10-22T07:39:42.159Z,101163.88
2022-10-22T07:42:15.020Z,101156.28
2022-10-22T07:44:47.871Z,101161.69
2022-10-22T07:47:20.701Z,101159.70
2022-10-22T07:49:53.558Z,101160.53
2022-10-22T07:52:26.765Z,101160.13
2022-10-22T07:54:59.545Z,101155.19
2022-10-22T07:57:32.450Z,101154.11
2022-10-22T08:00:08.572Z,101156.63
2022-10-22T08:02:43.792Z,101155.25
2022-10-22T08:05:18.080Z,101159.58
2022-10-22T08:07:50.884Z,101159.46
2022-10-22T08:10:23.973Z,101151.11
2022-10-22T08:12:57.950Z,101161.00
2022-10-22T08:15:31.477Z,101160.41
2022-10-22T08:18:04.476Z,101164.84
2022-10-22T08:20:37.439Z,101159.33
2022-10-22T08:23:10.758Z,101160.93
2022-10-22T08:25:43.901Z,101161.22
2022-10-22T08:28:19.886Z,101160.03
2022-10-22T08:30:51.344Z,101155.94
2022-10-22T08:33:24.340Z,101158.89
2022-10-22T08:35:57.256Z,101156.20
2022-10-22T08:38:31.802Z,101158.63
2022-10-22T08:41:17.753Z,101153.83
2022-10-22T08:44:17.476Z,101155.77
2022-10-22T08:47:11.792Z,101155.51
2022-10-22T08:49:45.764Z,101153.01
2022-10-22T08:52:20.585Z,101149.05
2022-10-22T08:54:59.746Z,101145.56
2022-10-22T08:57:52.154Z,101150.60
2022-10-22T09:00:34.180Z,101152.02
2022-10-22T09:03:30.594Z,101144.78
2022-10-22T09:06:25.774Z,101149.08
2022-10-22T09:09:00.906Z,101145.27
2022-10-22T09:11:41.065Z,101140.27
2022-10-22T09:14:21.982Z,101140.07
2022-10-22T09:17:23.664Z,101136.37
2022-10-22T09:20:20.849Z,101136.59
2022-10-22T09:22:58.450Z,101133.48
2022-10-22T09:25:37.589Z,101137.41
2022-10-22T09:28:12.446Z,101129.05
2022-10-22T09:30:46.313Z,101130.05
2022-10-22T09:33:28.465Z,101122.65
2022-10-22T09:36:04.773Z,101123.30
2022-10-22T09:38:44.283Z,101112.59
2022-10-22T09:41:19.045Z,101114.75
2022-10-22T09:43:53.473Z,101110.56
2022-10-22T09:46:31.489Z,101111.98
2022-10-22T09:49:11.727Z,101103.56
2022-10-22T09:51:59.072Z,101100.33
2022-10-22T09:54:42.369Z,101106.08
2022-10-22T09:57:24.124Z,101102.84
2022-10-22T09:59:57.867Z,101105.88
2022-10-22T10:02:38.494Z,101102.25
2022-10-22T10:05:07.935Z,101096.02
2022-10-22T10:07:41.091Z,101093.78
2022-10-22T10:10:30.285Z,101087.87
2022-10-22T10:13:25.858Z,101081.75
2022-10-22T10:16:44.331Z,101084.78
2022-10-22T10:19:43.408Z,101076.10
2022-10-22T10:22:44.104Z,101071.28
2022-10-22T10:25:30.967Z,101064.94
2022-10-22T10:28:35.584Z,101063.36
2022-10-22T10:31:21.921Z,101061.64
2022-10-22T10:34:32.800Z,101064.15
2022-10-22T10:37:26.805Z,101057.70
2022-10-22T10:40:22.391Z,101052.16
2022-10-22T10:43:13.967Z,101048.34
2022-10-22T10:49:01.999Z,101036.09
2022-10-22T10:52:00.473Z,101036.47
2022-10-22T10:54:52.993Z,101032.06
2022-10-22T10:57:36.429Z,101027.72
2022-10-22T11:00:21.388Z,101025.62
2022-10-22T11:03:32.441Z,101018.97
2022-10-22T11:06:20.504Z,101022.18
2022-10-22T11:08:58.173Z,101015.02
2022-10-22T11:11:39.722Z,101016.51
2022-10-22T11:14:27.933Z,101010.92
2022-10-22T11:17:08.822Z,101007.16
2022-10-22T11:19:52.333Z,101001.10
2022-10-22T11:22:47.265Z,100993.95
2022-10-22T11:25:34.132Z,101001.39
2022-10-22T11:28:36.910Z,100989.92
2022-10-22T11:31:14.166Z,100988.61
2022-10-22T11:34:04.689Z,100988.80
2022-10-22T11:36:35.153Z,100983.25
2022-10-22T11:39:08.328Z,100990.21
2022-10-22T11:41:42.123Z,100985.39
2022-10-22T11:44:26.224Z,100979.83
2022-10-22T11:47:03.354Z,100983.95
2022-10-22T11:50:02.601Z,100974.23
2022-10-22T11:52:41.972Z,100982.18
2022-10-22T11:55:34.286Z,100978.11
2022-10-22T11:58:11.731Z,100979.33
2022-10-22T12:00:49.785Z,100976.42
2022-10-22T12:03:43.193Z,100972.63
2022-10-22T12:06:21.288Z,100967.49
2022-10-22T12:09:05.045Z,100961.97
2022-10-22T12:11:45.349Z,100958.69
2022-10-22T12:14:56.014Z,100961.91
2022-10-22T12:17:30.431Z,100957.41
2022-10-22T12:20:09.546Z,100956.91
2022-10-22T12:22:42.765Z,100955.59
2022-10-22T12:25:22.400Z,100953.16
2022-10-22T12:27:58.933Z,100943.95
2022-10-22T12:30:35.149Z,100946.16
2022-10-22T12:33:11.888Z,100943.39
2022-10-22T12:35:47.136Z,100936.42
2022-10-22T12:38:23.917Z,100939.61
2022-10-22T12:40:59.166Z,100938.72
2022-10-22T12:43:33.823Z,100942.97
2022-10-22T12:46:08.627Z,100956.87
2022-10-22T12:48:45.231Z,100957.20
2022-10-22T12:51:21.035Z,100952.05
2022-10-22T12:53:57.397Z,100958.64
2022-10-22T12:56:33.609Z,100955.27
2022-10-22T12:59:26.030Z,100956.74
2022-10-22T13:01:59.269Z,100956.48
2022-10-22T13:04:39.618Z,100945.24
2022-10-22T13:07:21.975Z,100940.41
2022-10-22T13:10:01.312Z,100940.02
2022-10-22T13:12:39.535Z,100942.34
2022-10-22T13:15:31.859Z,100939.63
2022-10-22T13:18:26.295Z,100939.06
2022-10-22T13:21:06.123Z,100934.33
2022-10-22T13:23:39.885Z,100939.48
2022-10-22T13:26:18.631Z,100939.39
2022-10-22T13:28:57.656Z,100939.31
2022-10-22T13:31:36.322Z,100944.04
2022-10-22T13:34:16.395Z,100943.95
2022-10-22T13:36:47.754Z,100943.03
2022-10-22T13:39:23.318Z,100948.27
2022-10-22T13:41:56.148Z,100937.78
2022-10-22T13:44:29.038Z,100941.67
2022-10-22T13:47:01.982Z,100937.23
2022-10-22T13:49:35.421Z,100933.42
2022-10-22T13:52:10.372Z,100928.98
2022-10-22T13:54:43.239Z,100931.69
2022-10-22T13:57:16.395Z,100926.05
2022-10-22T13:59:49.112Z,100927.45
2022-10-22T14:02:24.590Z,100932.78
2022-10-22T14:04:59.338Z,100931.95
2022-10-22T14:07:32.760Z,100933.34
2022-10-22T14:10:18.160Z,100932.14
2022-10-22T14:12:53.435Z,100924.87
2022-10-22T14:15:29.293Z,100928.17
2022-10-22T14:18:03.347Z,100928.58
2022-10-22T14:20:38.713Z,100923.25
2022-10-22T14:23:21.285Z,100918.82
2022-10-22T14:25:54.344Z,100925.76
2022-10-22T14:28:27.532Z,100921.73
2022-10-22T14:31:00.700Z,100914.62
2022-10-22T14:33:35.224Z,100920.41
2022-10-22T14:36:08.823Z,100923.33
2022-10-22T14:38:42.604Z,100920.77
2022-10-22T14:41:21.979Z,100920.08
2022-10-22T14:43:56.070Z,100918.23
2022-10-22T14:46:28.798Z,100920.52
2022-10-22T14:49:03.086Z,100916.27
2022-10-22T14:51:36.181Z,100916.58
2022-10-22T14:54:09.223Z,100923.10
2022-10-22T14:56:42.889Z,100918.66
2022-10-22T14:59:15.981Z,100915.16
2022-10-22T15:01:48.852Z,100918.45
2022-10-22T15:04:23.621Z,100921.73
2022-10-22T15:06:56.688Z,100920.73
2022-10-22T15:09:31.184Z,100926.25
2022-10-22T15:12:06.250Z,100922.23
2022-10-22T15:14:39.259Z,100924.31
2022-10-22T15:17:12.700Z,100926.03
2022-10-22T15:19:46.559Z,100925.40
2022-10-22T15:22:19.754Z,100929.09
2022-10-22T15:24:53.909Z,100929.69
2022-10-22T15:27:26.972Z,100932.19
2022-10-22T15:30:00.106Z,100930.77
2022-10-22T15:32:34.365Z,100929.58
2022-10-22T15:35:09.006Z,100936.99
2022-10-22T15:37:43.496Z,100935.69
2022-10-22T15:40:16.211Z,100932.56
2022-10-22T15:42:49.061Z,100937.30
2022-10-22T15:45:22.686Z,100938.78
2022-10-22T15:47:56.447Z,100942.25
2022-10-22T15:50:30.112Z,100947.13
2022-10-22T15:53:03.187Z,100942.25
2022-10-22T15:55:39.193Z,100943.22
2022-10-22T15:58:12.062Z,100948.50
2022-10-22T16:00:45.258Z,100942.95
2022-10-22T16:03:19.282Z,100944.44
2022-10-22T16:05:54.766Z,100950.72
2022-10-22T16:08:28.326Z,100943.05
2022-10-22T16:11:04.099Z,100950.75
2022-10-22T16:13:38.213Z,100945.69
2022-10-22T16:16:11.497Z,100951.86
2022-10-22T16:18:44.370Z,100938.89
2022-10-22T16:21:18.307Z,100938.26
2022-10-22T16:23:51.214Z,100946.07
2022-10-22T16:26:23.970Z,100939.48
2022-10-22T16:28:57.031Z,100943.39
2022-10-22T16:31:31.589Z,100939.36
2022-10-22T16:34:04.917Z,100933.75
2022-10-22T16:36:39.834Z,100930.73
2022-10-22T16:39:12.904Z,100927.64
2022-10-22T16:41:47.078Z,100921.91
2022-10-22T16:44:23.103Z,100921.02
2022-10-22T16:46:55.989Z,100919.19
2022-10-22T16:49:28.969Z,100918.78
2022-10-22T16:52:04.268Z,100917.89
2022-10-22T16:54:37.243Z,100921.39
2022-10-22T16:57:12.004Z,100917.36
2022-10-22T16:59:45.406Z,100921.80
2022-10-22T17:02:21.392Z,100931.92
2022-10-22T17:04:54.812Z,100929.43
2022-10-22T17:07:28.031Z,100936.17
2022-10-22T17:10:03.233Z,100931.37
2022-10-22T17:12:36.816Z,100937.48
2022-10-22T17:15:10.830Z,100935.66
2022-10-22T17:17:46.984Z,100940.08
2022-10-22T17:20:20.231Z,100933.98
2022-10-22T17:22:53.716Z,100924.04
2022-10-22T17:25:39.831Z,100929.89
2022-10-22T17:28:15.441Z,100929.48
2022-10-22T17:30:49.706Z,100931.83
2022-10-22T17:33:23.053Z,100931.08
2022-10-22T17:35:56.800Z,100932.85
2022-10-22T17:38:30.106Z,100929.09
2022-10-22T17:41:04.254Z,100923.39
2022-10-22T17:43:39.305Z,100918.66
2022-10-22T17:46:19.040Z,100912.97
2022-10-22T17:48:57.808Z,100912.56
2022-10-22T17:51:37.926Z,100906.45
2022-10-22T17:54:16.349Z,100902.14
2022-10-22T17:56:49.224Z,100899.13
2022-10-22T17:59:25.461Z,100901.06
2022-10-22T18:02:01.533Z,100903.27
2022-10-22T18:04:36.330Z,100905.27
2022-10-22T18:07:09.768Z,100899.24
2022-10-22T18:09:44.762Z,100897.45
2022-10-22T18:12:19.763Z,100896.64
2022-10-22T18:14:54.518Z,100901.06
2022-10-22T18:17:27.845Z,100903.38
2022-10-22T18:20:03.557Z,100900.48
2022-10-22T18:22:37.138Z,100898.28
2022-10-22T18:25:10.958Z,100890.35
2022-10-22T18:27:46.150Z,100887.63
2022-10-22T18:30:19.123Z,100891.55
2022-10-22T18:32:52.133Z,100887.63
2022-10-22T18:35:24.905Z,100884.66
2022-10-22T18:37:57.805Z,100880.86
2022-10-22T18:40:30.660Z,100875.65
2022-10-22T18:43:06.139Z,100866.02
2022-10-22T18:45:43.980Z,100866.30
2022-10-22T18:48:20.422Z,100867.98
2022-10-22T18:51:03.849Z,100860.69
2022-10-22T18:53:40.289Z,100866.53
2022-10-22T18:56:14.636Z,100862.33
2022-10-22T19:01:25.913Z,100876.07
2022-10-22T19:03:59.068Z,100875.17
2022-10-22T19:06:34.419Z,100867.36
2022-10-22T19:09:09.401Z,100865.39
2022-10-22T19:11:42.438Z,100864.97
2022-10-22T19:14:18.911Z,100857.27
2022-10-22T19:16:51.900Z,100852.69
2022-10-22T19:19:25.297Z,100849.27
2022-10-22T19:21:59.827Z,100845.77
2022-10-22T19:24:32.907Z,100849.68
2022-10-22T19:27:05.034Z,100853.48
2022-10-22T19:29:39.013Z,100846.55
2022-10-22T19:32:14.595Z,100849.68
2022-10-22T19:34:47.718Z,100844.47
2022-10-22T19:37:20.526Z,100847.97
2022-10-22T19:39:54.126Z,100842.42
2022-10-22T19:42:27.092Z,100843.23
2022-10-22T19:45:00.451Z,100839.22
2022-10-22T19:47:34.393Z,100835.20
2022-10-22T19:50:07.786Z,100841.97
2022-10-22T19:52:40.896Z,100845.50
2022-10-22T19:55:13.848Z,100840.78
2022-10-22T19:57:47.055Z,100838.99
2022-10-22T20:00:19.942Z,100840.18
2022-10-22T20:02:53.004Z,100839.55
2022-10-22T20:05:25.907Z,100830.32
2022-10-22T20:07:59.264Z,100825.00
2022-10-22T20:10:33.493Z,100815.66
2022-10-22T20:13:06.978Z,100805.42
2022-10-22T20:15:40.272Z,100804.11
2022-10-22T20:18:14.397Z,100808.20
2022-10-22T20:20:47.530Z,100804.56
2022-10-22T20:23:20.375Z,100804.45
2022-10-22T20:25:53.333Z,100805.64
2022-10-22T20:28:26.718Z,100800.23
2022-10-22T20:30:59.762Z,100795.14
2022-10-22T20:33:32.771Z,100802.14
2022-10-22T20:36:09.769Z,100806.16
2022-10-22T20:38:43.562Z,100800.55
2022-10-22T20:41:23.279Z,100800.95
2022-10-22T20:43:56.449Z,100799.53
2022-10-22T20:46:33.948Z,100803.63
2022-10-22T20:49:16.118Z,100806.11
2022-10-22T20:51:48.905Z,100800.56
2022-10-22T20:54:21.854Z,100793.83
2022-10-22T20:56:54.815Z,100791.23
2022-10-22T20:59:30.536Z,100781.81
2022-10-22T21:02:03.855Z,100780.63
2022-10-22T21:04:36.667Z,100782.56
2022-10-22T21:07:10.629Z,100788.30
2022-10-22T21:09:44.069Z,100783.20
2022-10-22T21:12:17.166Z,100781.59
2022-10-22T21:14:50.547Z,100777.92
2022-10-22T21:17:23.364Z,100771.74
2022-10-22T21:19:57.858Z,100771.03
2022-10-22T21:22:30.760Z,100767.76
2022-10-22T21:25:03.733Z,100765.27
2022-10-22T21:27:36.666Z,100760.95
2022-10-22T21:30:11.263Z,100761.47
2022-10-22T21:32:45.136Z,100748.14
2022-10-22T21:35:18.584Z,100747.47
2022-10-22T21:37:51.376Z,100745.77
2022-10-22T21:40:25.131Z,100740.96
2022-10-22T21:42:58.020Z,100737.84
2022-10-22T21:45:30.852Z,100736.05
2022-10-22T21:48:04.427Z,100737.73
2022-10-22T21:50:42.872Z,100740.62
2022-10-22T21:53:15.968Z,100738.44
2022-10-22T21:55:49.215Z,100741.03
2022-10-22T21:58:22.635Z,100739.84
2022-10-22T22:01:00.733Z,100737.35
2022-10-22T22:03:33.651Z,100736.16
2022-10-22T22:06:08.124Z,100733.66
2022-10-22T22:08:41.426Z,100733.25
2022-10-22T22:11:18.788Z,100729.23
2022-10-22T22:13:54.316Z,100726.11
2022-10-22T22:16:33.510Z,100729.02
2022-10-22T22:19:09.640Z,100719.67
2022-10-22T22:21:42.986Z,100723.89
2022-10-22T22:24:15.959Z,100723.26
2022-10-22T22:26:50.402Z,100720.54
2022-10-22T22:29:23.376Z,100714.22
2022-10-22T22:31:57.314Z,100707.97
2022-10-22T22:34:30.398Z,100708.97
2022-10-22T22:37:03.883Z,100702.25
2022-10-22T22:39:36.962Z,100701.80
2022-10-22T22:42:09.911Z,100694.03
2022-10-22T22:44:43.156Z,100697.23
2022-10-22T22:47:15.909Z,100706.00
2022-10-22T22:49:49.186Z,100706.97
2022-10-22T22:52:22.229Z,100705.84
2022-10-22T22:54:55.230Z,100709.13
2022-10-22T22:57:28.170Z,100707.41
2022-10-22T23:00:00.955Z,100703.80
2022-10-22T23:02:34.279Z,100702.09
2022-10-22T23:05:07.817Z,100690.80
2022-10-22T23:07:40.607Z,100696.29
2022-10-22T23:10:15.249Z,100701.38
2022-10-22T23:12:48.057Z,100704.39
2022-10-22T23:15:22.991Z,100704.87
2022-10-22T23:17:57.337Z,100705.40
2022-10-22T23:20:30.301Z,100704.87
2022-10-22T23:23:05.028Z,100704.28
2022-10-22T23:25:37.913Z,100693.64
2022-10-22T23:28:10.553Z,100696.73
2022-10-22T23:30:45.887Z,100693.47
2022-10-22T23:33:19.804Z,100688.48
2022-10-22T23:35:52.867Z,100688.97
2022-10-22T23:38:25.722Z,100692.88
2022-10-22T23:40:59.304Z,100691.98
2022-10-22T23:43:34.565Z,100686.77
2022-10-22T23:46:11.062Z,100688.97
2022-10-22T23:48:44.332Z,100675.95
2022-10-22T23:51:19.109Z,100677.78
2022-10-22T23:53:55.964Z,100675.80
2022-10-22T23:56:30.047Z,100676.59
2022-10-22T23:59:03.558Z,100668.45
